createdAt,value
2018-07-12T00:02:26.265Z,16.70
2018-07-12T00:04:54.228Z,16.70
2018-07-12T00:07:22.197Z,16.70
2018-07-12T00:09:50.183Z,16.70
2018-07-12T00:12:18.128Z,16.70
2018-07-12T00:14:46.092Z,16.70
2018-07-12T00:17:14.024Z,16.70
2018-07-12T00:19:41.988Z,16.70
2018-07-12T00:24:38.172Z,16.70
2018-07-12T00:27:06.140Z,16.70
2018-07-12T00:29:34.100Z,16.70
2018-07-12T00:32:02.037Z,16.70
2018-07-12T00:36:58.098Z,16.70
2018-07-12T00:39:26.064Z,16.80
2018-07-12T00:41:54.020Z,16.80
2018-07-12T00:46:50.148Z,16.80
2018-07-12T00:49:18.111Z,16.80
2018-07-12T00:51:46.077Z,16.80
2018-07-12T00:54:14.011Z,16.90
2018-07-12T00:56:41.980Z,16.90
2018-07-12T00:59:09.914Z,16.90
2018-07-12T01:04:06.005Z,16.90
2018-07-12T01:06:33.979Z,17.00
2018-07-12T01:09:02.023Z,17.00
2018-07-12T01:11:29.981Z,17.00
2018-07-12T01:13:57.951Z,17.00
2018-07-12T01:16:26.224Z,17.00
2018-07-12T01:18:54.192Z,17.00
2018-07-12T01:21:22.154Z,17.00
2018-07-12T01:23:50.100Z,17.00
2018-07-12T01:26:18.066Z,17.00
2018-07-12T01:28:46.006Z,17.00
2018-07-12T01:31:13.970Z,17.00
2018-07-12T01:33:41.899Z,17.00
2018-07-12T01:36:09.943Z,17.00
2018-07-12T01:38:37.804Z,17.00
2018-07-12T01:41:05.770Z,17.00
2018-07-12T01:43:33.708Z,17.10
2018-07-12T01:46:01.767Z,17.10
2018-07-12T01:48:29.700Z,17.10
2018-07-12T01:50:57.668Z,17.10
2018-07-12T01:53:25.888Z,17.10
2018-07-12T01:55:53.824Z,17.20
2018-07-12T01:58:21.764Z,17.20
2018-07-12T02:00:49.728Z,17.20
2018-07-12T02:03:17.696Z,17.20
2018-07-12T02:05:45.668Z,17.20
2018-07-12T02:08:13.604Z,17.30
2018-07-12T02:10:41.572Z,17.30
2018-07-12T02:13:09.542Z,17.30
2018-07-12T02:15:37.481Z,17.30
2018-07-12T02:18:05.414Z,17.30
2018-07-12T02:20:33.390Z,17.30
2018-07-12T02:23:01.408Z,17.40
2018-07-12T02:25:29.334Z,17.30
2018-07-12T02:27:57.315Z,17.30
2018-07-12T02:30:25.256Z,17.40
2018-07-12T02:32:53.229Z,17.40
2018-07-12T02:35:21.200Z,17.40
2018-07-12T02:37:49.165Z,17.40
2018-07-12T02:40:17.099Z,17.40
2018-07-12T02:42:45.066Z,17.40
2018-07-12T02:45:12.996Z,17.40
2018-07-12T02:47:40.965Z,17.40
2018-07-12T02:50:08.937Z,17.40
2018-07-12T02:52:36.876Z,17.40
2018-07-12T02:55:04.844Z,17.40
2018-07-12T02:57:32.857Z,17.40
2018-07-12T03:00:00.791Z,17.40
2018-07-12T03:02:28.767Z,17.40
2018-07-12T03:04:56.712Z,17.50
2018-07-12T03:07:24.682Z,17.40
2018-07-12T03:09:52.623Z,17.50
2018-07-12T03:12:20.601Z,17.50
2018-07-12T03:14:48.571Z,17.50
2018-07-12T03:17:16.504Z,17.50
2018-07-12T03:19:44.469Z,17.50
2018-07-12T03:22:12.433Z,17.50
2018-07-12T03:24:40.368Z,17.50
2018-07-12T03:27:08.337Z,17.50
2018-07-12T03:29:36.277Z,17.40
2018-07-12T03:32:04.241Z,17.50
2018-07-12T03:34:32.171Z,17.50
2018-07-12T03:37:00.136Z,17.50
2018-07-12T03:39:28.100Z,17.50
2018-07-12T03:41:56.036Z,17.50
2018-07-12T03:44:23.968Z,17.50
2018-07-12T03:46:51.932Z,17.50
2018-07-12T03:49:19.901Z,17.50
2018-07-12T03:51:47.875Z,17.50
2018-07-12T03:54:15.836Z,17.50
2018-07-12T03:56:43.769Z,17.50
2018-07-12T03:59:11.737Z,17.50
2018-07-12T04:01:39.697Z,17.50
2018-07-12T04:04:07.668Z,17.50
2018-07-12T04:06:35.608Z,17.50
2018-07-12T04:09:04.901Z,17.50
2018-07-12T04:11:32.838Z,17.50
2018-07-12T04:14:00.836Z,17.50
2018-07-12T04:16:28.808Z,17.50
2018-07-12T04:18:56.779Z,17.50
2018-07-12T04:21:24.718Z,17.60
2018-07-12T04:23:52.683Z,17.60
2018-07-12T04:26:20.616Z,17.60
2018-07-12T04:28:48.591Z,17.60
2018-07-12T04:31:16.524Z,17.60
2018-07-12T04:33:44.492Z,17.60
2018-07-12T04:36:12.428Z,17.60
2018-07-12T04:38:40.392Z,17.60
2018-07-12T04:41:08.361Z,17.60
2018-07-12T04:43:36.680Z,17.60
2018-07-12T04:46:04.622Z,17.60
2018-07-12T04:48:32.619Z,17.60
2018-07-12T04:51:00.552Z,17.70
2018-07-12T04:53:28.523Z,17.70
2018-07-12T04:55:56.633Z,17.70
2018-07-12T04:58:24.569Z,17.70
2018-07-12T05:00:52.505Z,17.70
2018-07-12T05:03:20.472Z,17.80
2018-07-12T05:05:48.409Z,17.80
2018-07-12T05:08:16.372Z,17.80
2018-07-12T05:10:44.312Z,17.80
2018-07-12T05:13:12.304Z,17.80
2018-07-12T05:15:40.276Z,17.80
2018-07-12T05:18:08.239Z,17.90
2018-07-12T05:20:36.185Z,17.90
2018-07-12T05:23:04.160Z,17.90
2018-07-12T05:25:32.130Z,17.90
2018-07-12T05:28:00.096Z,18.00
2018-07-12T05:30:28.073Z,18.00
2018-07-12T05:32:56.044Z,18.00
2018-07-12T05:35:25.305Z,18.10
2018-07-12T05:40:22.998Z,18.10
2018-07-12T05:42:52.156Z,18.10
2018-07-12T05:45:21.176Z,18.10
2018-07-12T05:47:50.319Z,18.10
2018-07-12T05:50:19.585Z,18.10
2018-07-12T05:55:17.276Z,18.20
2018-07-12T05:57:46.443Z,18.20
2018-07-12T06:00:16.106Z,18.20
2018-07-12T06:02:45.187Z,18.20
2018-07-12T06:05:14.270Z,18.30
2018-07-12T06:07:43.302Z,18.30
2018-07-12T06:10:12.361Z,18.30
2018-07-12T06:12:41.414Z,18.40
2018-07-12T06:15:10.460Z,18.50
2018-07-12T06:17:39.528Z,18.50
2018-07-12T06:20:08.826Z,18.60
2018-07-12T06:22:38.012Z,18.60
2018-07-12T06:25:07.231Z,18.70
2018-07-12T06:27:36.248Z,18.70
2018-07-12T06:30:06.069Z,18.80
2018-07-12T06:32:35.095Z,18.80
2018-07-12T06:35:04.193Z,18.90
2018-07-12T06:37:33.386Z,18.90
2018-07-12T06:40:02.519Z,18.90
2018-07-12T06:42:31.688Z,18.90
2018-07-12T06:45:01.292Z,18.90
2018-07-12T06:47:31.271Z,18.90
2018-07-12T06:50:01.104Z,18.90
2018-07-12T06:52:30.346Z,18.90
2018-07-12T06:54:59.464Z,19.00
2018-07-12T06:57:28.780Z,19.00
2018-07-12T06:59:58.596Z,19.10
2018-07-12T07:02:27.698Z,19.10
2018-07-12T07:04:56.821Z,19.10
2018-07-12T07:07:26.174Z,19.20
2018-07-12T07:09:55.252Z,19.20
2018-07-12T07:12:24.383Z,19.20
2018-07-12T07:14:53.428Z,19.20
2018-07-12T07:17:22.442Z,19.30
2018-07-12T07:19:51.469Z,19.20
2018-07-12T07:22:20.556Z,19.20
2018-07-12T07:24:50.068Z,19.20
2018-07-12T07:27:19.977Z,19.20
2018-07-12T07:29:50.214Z,19.10
2018-07-12T07:32:19.435Z,19.10
2018-07-12T07:34:48.498Z,19.20
2018-07-12T07:37:18.446Z,19.20
2018-07-12T07:39:48.032Z,19.20
2018-07-12T07:42:17.087Z,19.30
2018-07-12T07:44:46.654Z,19.40
2018-07-12T07:47:15.672Z,19.50
2018-07-12T07:49:44.777Z,19.60
2018-07-12T07:54:42.564Z,19.70
2018-07-12T07:57:11.628Z,19.80
2018-07-12T07:59:40.686Z,19.80
2018-07-12T08:02:11.026Z,19.90
2018-07-12T08:04:40.960Z,20.00
2018-07-12T08:07:10.772Z,20.00
2018-07-12T08:09:39.809Z,20.10
2018-07-12T08:12:09.258Z,20.10
2018-07-12T08:14:38.316Z,20.10
2018-07-12T08:17:07.517Z,20.10
2018-07-12T08:19:37.006Z,20.10
2018-07-12T08:22:08.387Z,20.10
2018-07-12T08:24:37.498Z,20.10
2018-07-12T08:27:06.684Z,20.10
2018-07-12T08:29:35.750Z,20.10
2018-07-12T08:32:05.411Z,20.20
2018-07-12T08:34:34.521Z,20.20
2018-07-12T08:37:03.612Z,20.20
2018-07-12T08:39:32.668Z,20.30
2018-07-12T08:42:01.726Z,20.40
2018-07-12T08:44:30.765Z,20.50
2018-07-12T08:46:59.818Z,20.70
2018-07-12T08:49:28.842Z,20.80
2018-07-12T08:51:57.910Z,20.90
2018-07-12T08:54:26.923Z,21.00
2018-07-12T08:56:55.995Z,21.10
2018-07-12T08:59:25.115Z,21.10
2018-07-12T09:01:54.142Z,21.00
2018-07-12T09:04:23.155Z,21.00
2018-07-12T09:06:52.204Z,21.10
2018-07-12T09:09:21.257Z,21.20
2018-07-12T09:11:50.307Z,21.20
2018-07-12T09:14:19.358Z,21.20
2018-07-12T09:16:48.394Z,21.30
2018-07-12T09:19:17.444Z,21.30
2018-07-12T09:21:46.476Z,21.30
2018-07-12T09:24:15.504Z,21.30
2018-07-12T09:26:44.860Z,21.40
2018-07-12T09:29:13.956Z,21.50
2018-07-12T09:31:42.960Z,21.50
2018-07-12T09:34:11.972Z,21.50
2018-07-12T09:36:41.023Z,21.60
2018-07-12T09:39:10.156Z,21.70
2018-07-12T09:41:39.228Z,21.60
2018-07-12T09:44:08.293Z,21.60
2018-07-12T09:49:06.113Z,21.60
2018-07-12T09:51:35.128Z,21.70
2018-07-12T09:54:04.244Z,21.80
2018-07-12T09:56:44.532Z,21.90
2018-07-12T09:59:13.682Z,22.10
2018-07-12T10:03:51.881Z,22.10
2018-07-12T10:06:25.848Z,22.20
2018-07-12T10:11:31.804Z,22.40
2018-07-12T10:14:06.160Z,22.60
2018-07-12T10:16:40.433Z,22.80
2018-07-12T10:19:09.480Z,22.90
2018-07-12T10:21:38.526Z,23.00
2018-07-12T10:24:07.604Z,23.10
2018-07-12T10:26:36.679Z,23.10
2018-07-12T10:29:05.708Z,23.10
2018-07-12T10:31:35.069Z,23.10
2018-07-12T10:34:04.124Z,23.10
2018-07-12T10:36:33.135Z,23.00
2018-07-12T10:39:02.226Z,22.90
2018-07-12T10:41:31.260Z,22.90
2018-07-12T10:44:00.301Z,23.00
2018-07-12T10:46:29.307Z,23.00
2018-07-12T10:48:58.385Z,22.90
2018-07-12T10:51:27.449Z,22.90
2018-07-12T10:53:56.560Z,22.90
2018-07-12T10:56:25.640Z,22.80
2018-07-12T10:58:54.706Z,22.90
2018-07-12T11:01:23.892Z,23.00
2018-07-12T11:03:52.998Z,23.00
2018-07-12T11:06:22.019Z,23.10
2018-07-12T11:08:51.112Z,23.20
2018-07-12T11:11:20.158Z,23.30
2018-07-12T11:13:53.717Z,23.30
2018-07-12T11:16:22.744Z,23.30
2018-07-12T11:18:51.820Z,23.30
2018-07-12T11:21:20.915Z,23.30
2018-07-12T11:23:49.980Z,23.20
2018-07-12T11:26:19.036Z,23.20
2018-07-12T11:28:48.103Z,23.10
2018-07-12T11:31:17.125Z,23.10
2018-07-12T11:36:16.091Z,23.00
2018-07-12T11:38:45.656Z,23.00
2018-07-12T11:41:14.834Z,23.10
2018-07-12T11:43:44.009Z,23.20
2018-07-12T11:46:14.460Z,23.30
2018-07-12T11:48:44.200Z,23.40
2018-07-12T11:51:13.348Z,23.50
2018-07-12T11:53:42.417Z,23.60
2018-07-12T11:56:11.564Z,23.70
2018-07-12T11:58:41.251Z,23.80
2018-07-12T12:01:10.277Z,23.90
2018-07-12T12:03:39.304Z,24.00
2018-07-12T12:06:08.365Z,24.10
2018-07-12T12:08:43.693Z,24.10
2018-07-12T12:11:12.819Z,24.10
2018-07-12T12:13:41.876Z,24.10
2018-07-12T12:16:10.935Z,24.00
2018-07-12T12:18:39.966Z,24.00
2018-07-12T12:23:37.651Z,24.00
2018-07-12T12:26:06.716Z,23.90
2018-07-12T12:28:35.865Z,23.80
2018-07-12T12:31:04.892Z,23.90
2018-07-12T12:33:33.946Z,24.00
2018-07-12T12:36:03.004Z,24.10
2018-07-12T12:38:32.199Z,24.10
2018-07-12T12:41:01.220Z,24.10
2018-07-12T12:43:30.275Z,24.10
2018-07-12T12:45:59.328Z,24.00
2018-07-12T12:48:28.475Z,24.10
2018-07-12T12:50:57.634Z,24.10
2018-07-12T12:53:26.616Z,24.20
2018-07-12T12:55:55.648Z,24.30
2018-07-12T12:58:24.695Z,24.40
2018-07-12T13:00:53.744Z,24.60
2018-07-12T13:03:22.844Z,24.70
2018-07-12T13:05:51.870Z,24.80
2018-07-12T13:08:21.843Z,24.80
2018-07-12T13:10:50.856Z,24.80
2018-07-12T13:13:19.916Z,24.80
2018-07-12T13:15:49.000Z,24.90
2018-07-12T13:18:18.064Z,24.90
2018-07-12T13:20:47.107Z,24.80
2018-07-12T13:23:16.216Z,24.80
2018-07-12T13:25:45.345Z,24.90
2018-07-12T13:28:14.317Z,24.90
2018-07-12T13:30:43.416Z,24.70
2018-07-12T13:33:12.442Z,24.60
2018-07-12T13:35:41.484Z,24.50
2018-07-12T13:38:10.500Z,24.50
2018-07-12T13:40:39.548Z,24.50
2018-07-12T13:43:08.744Z,24.50
2018-07-12T13:45:37.848Z,24.50
2018-07-12T13:48:06.886Z,24.50
2018-07-12T13:50:35.989Z,24.40
2018-07-12T13:53:05.784Z,24.40
2018-07-12T13:55:34.861Z,24.30
2018-07-12T13:58:03.996Z,24.20
2018-07-12T14:00:33.382Z,24.10
2018-07-12T14:03:02.444Z,24.10
2018-07-12T14:05:31.588Z,24.10
2018-07-12T14:08:00.649Z,24.10
2018-07-12T14:10:29.720Z,24.20
2018-07-12T14:12:58.780Z,24.30
2018-07-12T14:15:28.011Z,24.40
2018-07-12T14:17:57.072Z,24.40
2018-07-12T14:20:26.165Z,24.50
2018-07-12T14:22:55.364Z,24.50
2018-07-12T14:25:24.477Z,24.50
2018-07-12T14:27:53.622Z,24.50
2018-07-12T14:30:22.672Z,24.50
2018-07-12T14:32:51.697Z,24.60
2018-07-12T14:35:20.813Z,24.70
2018-07-12T14:37:49.893Z,24.70
2018-07-12T14:40:18.984Z,24.80
2018-07-12T14:42:48.021Z,24.80
2018-07-12T14:45:17.226Z,24.70
2018-07-12T14:47:46.305Z,24.70
2018-07-12T14:52:44.110Z,24.70
2018-07-12T14:55:13.274Z,24.70
2018-07-12T14:57:42.298Z,24.70
2018-07-12T15:00:11.336Z,24.80
2018-07-12T15:02:40.407Z,24.80
2018-07-12T15:05:09.469Z,24.80
2018-07-12T15:07:38.677Z,24.70
2018-07-12T15:10:07.929Z,24.70
2018-07-12T15:12:37.173Z,24.70
2018-07-12T15:15:06.608Z,24.70
2018-07-12T15:17:35.741Z,24.50
2018-07-12T15:20:04.869Z,24.40
2018-07-12T15:22:34.166Z,24.30
2018-07-12T15:25:03.720Z,24.20
2018-07-12T15:27:33.009Z,24.10
2018-07-12T15:30:02.409Z,24.10
2018-07-12T15:32:31.443Z,24.00
2018-07-12T15:35:00.486Z,23.90
2018-07-12T15:37:29.555Z,24.00
2018-07-12T15:44:56.001Z,24.20
2018-07-12T15:47:25.163Z,24.30
2018-07-12T15:49:54.271Z,24.40
2018-07-12T15:52:23.378Z,24.50
2018-07-12T15:54:52.379Z,24.50
2018-07-12T15:57:21.432Z,24.60
2018-07-12T15:59:50.529Z,24.70
2018-07-12T16:02:19.596Z,24.70
2018-07-12T16:04:48.644Z,24.70
2018-07-12T16:07:17.776Z,24.70
2018-07-12T16:09:46.776Z,24.70
2018-07-12T16:12:15.820Z,24.70
2018-07-12T16:14:44.884Z,24.60
2018-07-12T16:17:14.098Z,24.50
2018-07-12T16:19:43.122Z,24.50
2018-07-12T16:22:12.222Z,24.50
2018-07-12T16:24:41.275Z,24.50
2018-07-12T16:27:10.325Z,24.60
2018-07-12T16:29:39.401Z,24.70
2018-07-12T16:32:08.453Z,24.70
2018-07-12T16:34:37.468Z,24.60
2018-07-12T16:37:06.550Z,24.60
2018-07-12T16:39:35.859Z,24.50
2018-07-12T16:42:05.036Z,24.50
2018-07-12T16:44:34.191Z,24.50
2018-07-12T16:47:03.283Z,24.40
2018-07-12T16:49:32.389Z,24.30
2018-07-12T16:52:01.502Z,24.20
2018-07-12T16:54:30.612Z,24.10
2018-07-12T16:56:59.660Z,24.00
2018-07-12T16:59:28.740Z,23.90
2018-07-12T17:01:58.550Z,23.80
2018-07-12T17:04:27.647Z,23.70
2018-07-12T17:06:56.764Z,23.60
2018-07-12T17:09:25.835Z,23.50
2018-07-12T17:11:54.904Z,23.40
2018-07-12T17:14:24.150Z,23.30
2018-07-12T17:16:53.255Z,23.30
2018-07-12T17:19:22.356Z,23.20
2018-07-12T17:21:51.448Z,23.10
2018-07-12T17:24:20.521Z,23.10
2018-07-12T17:26:49.730Z,23.00
2018-07-12T17:29:18.856Z,22.90
2018-07-12T17:34:17.293Z,22.80
2018-07-12T17:36:46.453Z,22.70
2018-07-12T17:39:15.482Z,22.60
2018-07-12T17:41:44.500Z,22.60
2018-07-12T17:44:13.569Z,22.60
2018-07-12T17:46:42.616Z,22.60
2018-07-12T17:49:11.671Z,22.50
2018-07-12T17:51:40.782Z,22.40
2018-07-12T17:54:09.904Z,22.40
2018-07-12T17:56:38.951Z,22.30
2018-07-12T17:59:08.002Z,22.30
2018-07-12T18:06:34.402Z,22.00
2018-07-12T18:09:04.327Z,22.00
2018-07-12T18:11:33.388Z,21.90
2018-07-12T18:14:02.457Z,21.80
2018-07-12T18:16:31.628Z,21.70
2018-07-12T18:19:00.899Z,21.60
2018-07-12T18:21:30.006Z,21.60
2018-07-12T18:23:59.156Z,21.50
2018-07-12T18:28:56.831Z,21.20
2018-07-12T18:31:25.901Z,21.20
2018-07-12T18:33:54.944Z,21.10
2018-07-12T18:36:23.959Z,21.00
2018-07-12T18:38:53.040Z,20.90
2018-07-12T18:41:22.081Z,20.80
2018-07-12T18:43:51.283Z,20.70
2018-07-12T18:46:20.378Z,20.60
2018-07-12T18:48:49.568Z,20.50
2018-07-12T18:51:18.663Z,20.40
2018-07-12T18:53:47.806Z,20.30
2018-07-12T18:56:16.901Z,20.20
2018-07-12T18:58:45.965Z,20.10
2018-07-12T19:01:15.249Z,20.00
2018-07-12T19:03:44.405Z,20.00
2018-07-12T19:06:13.471Z,19.90
2018-07-12T19:08:42.982Z,19.80
2018-07-12T19:11:12.390Z,19.70
2018-07-12T19:13:41.424Z,19.70
2018-07-12T19:16:10.536Z,19.60
2018-07-12T19:18:40.129Z,19.50
2018-07-12T19:21:09.485Z,19.50
2018-07-12T19:23:38.733Z,19.40
2018-07-12T19:26:07.875Z,19.30
2018-07-12T19:28:37.001Z,19.20
2018-07-12T19:31:06.140Z,19.10
2018-07-12T19:33:36.114Z,18.90
2018-07-12T19:36:05.180Z,18.80
2018-07-12T19:41:03.212Z,18.60
2018-07-12T19:43:32.479Z,18.60
2018-07-12T19:46:01.575Z,18.50
2018-07-12T19:48:30.926Z,18.40
2018-07-12T19:51:00.058Z,18.30
2018-07-12T19:55:58.088Z,18.20
2018-07-12T19:58:27.603Z,18.10
2018-07-12T20:00:56.777Z,18.00
2018-07-12T20:03:26.412Z,17.90
2018-07-12T20:05:55.687Z,17.80
2018-07-12T20:08:25.121Z,17.70
2018-07-12T20:10:54.271Z,17.60
2018-07-12T20:13:23.446Z,17.60
2018-07-12T20:15:52.816Z,17.50
2018-07-12T20:18:21.938Z,17.50
2018-07-12T20:20:51.145Z,17.40
2018-07-12T20:23:20.406Z,17.40
2018-07-12T20:25:49.629Z,17.30
2018-07-12T20:28:18.813Z,17.30
2018-07-12T20:30:48.943Z,17.20
2018-07-12T20:33:18.094Z,17.10
2018-07-12T20:35:47.489Z,17.10
2018-07-12T20:38:16.976Z,17.00
2018-07-12T20:40:46.313Z,17.00
2018-07-12T20:43:19.222Z,16.90
2018-07-12T20:45:48.847Z,16.90
2018-07-12T20:48:18.413Z,16.90
2018-07-12T20:50:47.620Z,16.90
2018-07-12T20:53:16.696Z,16.90
2018-07-12T20:55:46.088Z,16.90
2018-07-12T20:58:15.398Z,16.80
2018-07-12T21:00:44.899Z,16.80
2018-07-12T21:03:14.064Z,16.70
2018-07-12T21:08:11.924Z,16.70
2018-07-12T21:10:41.098Z,16.70
2018-07-12T21:13:10.578Z,16.70
2018-07-12T21:15:39.970Z,16.60
2018-07-12T21:18:09.032Z,16.60
2018-07-12T21:20:39.216Z,16.60
2018-07-12T21:23:08.376Z,16.50
2018-07-12T21:25:37.656Z,16.50
2018-07-12T21:28:06.862Z,16.50
2018-07-12T21:30:35.925Z,16.50
2018-07-12T21:33:04.985Z,16.50
2018-07-12T21:35:34.035Z,16.40
2018-07-12T21:38:03.092Z,16.30
2018-07-12T21:40:32.128Z,16.20
2018-07-12T21:43:01.207Z,16.10
2018-07-12T21:45:30.359Z,16.10
2018-07-12T21:47:59.396Z,16.10
2018-07-12T21:50:28.707Z,16.00
2018-07-12T21:52:57.864Z,16.00
2018-07-12T21:55:26.957Z,15.90
2018-07-12T21:57:56.126Z,15.80
2018-07-12T22:00:25.247Z,15.80
2018-07-12T22:02:54.648Z,15.80
2018-07-12T22:05:23.651Z,15.80
2018-07-12T22:08:11.403Z,15.70
2018-07-12T22:10:40.604Z,15.70
2018-07-12T22:13:10.300Z,15.70
2018-07-12T22:15:39.476Z,15.60
2018-07-12T22:18:08.991Z,15.60
2018-07-12T22:20:38.233Z,15.60
2018-07-12T22:23:07.403Z,15.50
2018-07-12T22:25:36.643Z,15.60
2018-07-12T22:28:05.789Z,15.60
2018-07-12T22:30:35.040Z,15.60
2018-07-12T22:33:04.512Z,15.50
2018-07-12T22:35:34.038Z,15.50
2018-07-12T22:38:03.881Z,15.40
2018-07-12T22:40:33.350Z,15.40
2018-07-12T22:43:02.381Z,15.30
2018-07-12T22:45:31.468Z,15.30
2018-07-12T22:48:00.593Z,15.20
2018-07-12T22:50:29.615Z,15.20
2018-07-12T22:52:58.704Z,15.20
2018-07-12T22:55:27.728Z,15.20
2018-07-12T22:57:56.759Z,15.20
2018-07-12T23:00:25.824Z,15.20
2018-07-12T23:02:55.477Z,15.20
2018-07-12T23:05:24.545Z,15.30
2018-07-12T23:07:53.579Z,15.30
2018-07-12T23:10:22.641Z,15.40
2018-07-12T23:12:51.744Z,15.50
2018-07-12T23:15:20.834Z,15.50
2018-07-12T23:17:49.934Z,15.60
2018-07-12T23:20:18.994Z,15.60
2018-07-12T23:22:48.040Z,15.70
2018-07-12T23:25:17.092Z,15.80
2018-07-12T23:27:46.156Z,15.80
2018-07-12T23:30:15.186Z,15.80
2018-07-12T23:32:44.250Z,15.90
2018-07-12T23:35:13.349Z,15.90
2018-07-12T23:37:42.404Z,15.90
2018-07-12T23:40:11.456Z,15.90
2018-07-12T23:42:40.611Z,15.90
2018-07-12T23:45:09.685Z,15.80
2018-07-12T23:47:39.195Z,15.80
2018-07-12T23:50:08.237Z,15.80
2018-07-12T23:52:37.270Z,15.70
2018-07-12T23:55:06.331Z,15.70
2018-07-12T23:57:35.418Z,15.70
